PADL/DLG METAR and TAF weather

Enter ICAO airport designator
Station Type Date Time Source
PADL METAR 2019/04/19 07:56 UTC NOAA

PADL 190756Z AUTO 00000KT 10SM SCT049 M03/M08 A2966 RMK AO2 SLP049 T10281078 FZRANO


Station Type Date Time Source
PADL Decoded METAR 2019/04/19 07:56 UTC NOAA

Dillingham, Dillingham Airport, AK, United States (PADL) 59-03N 158-31W 29M
Apr 19, 2019 - 03:56 AM EDT / 2019.04.19 0756 UTC
Wind: Calm:0
Visibility: 10 mile(s):0
Sky conditions: partly cloudy
Temperature: 27.0 F (-2.8 C)
Dew Point: 18.0 F (-7.8 C)
Relative Humidity: 68%
Pressure (altimeter): 29.66 in. Hg (1004 hPa)
ob: PADL 190756Z AUTO 00000KT 10SM SCT049 M03/M08 A2966 RMK AO2 SLP049 T10281078 FZRANO
cycle: 8

Station Type Date Time Source
PADL TAF 2019/04/19 06:27 UTC NOAA

TAF PADL 190524Z 1906/2006 VRB04KT P6SM BKN035
FM191600 VRB04KT P6SM -SHSN OVC015
FM192100 29007KT P6SM BKN050

Example: see airport list